createdAt,value
2022-12-22T00:01:15.299Z,29.08
2022-12-22T00:04:00.154Z,29.10
2022-12-22T00:06:45.849Z,29.24
2022-12-22T00:09:32.492Z,29.17
2022-12-22T00:12:17.627Z,28.98
2022-12-22T00:15:02.809Z,29.11
2022-12-22T00:17:47.618Z,29.16
2022-12-22T00:20:33.334Z,29.09
2022-12-22T00:23:18.225Z,29.21
2022-12-22T00:26:04.688Z,29.26
2022-12-22T00:28:49.695Z,29.26
2022-12-22T00:31:34.535Z,29.09
2022-12-22T00:34:19.405Z,29.21
2022-12-22T00:37:04.193Z,29.21
2022-12-22T00:39:49.008Z,29.24
2022-12-22T00:42:35.642Z,29.11
2022-12-22T00:45:20.497Z,29.04
2022-12-22T00:48:06.924Z,29.04
2022-12-22T00:50:52.525Z,29.13
2022-12-22T00:53:37.539Z,29.10
2022-12-22T00:56:22.788Z,29.14
2022-12-22T00:59:09.542Z,28.90
2022-12-22T01:01:54.608Z,29.09
2022-12-22T01:04:39.837Z,29.03
2022-12-22T01:07:25.229Z,29.17
2022-12-22T01:10:10.546Z,29.11
2022-12-22T01:12:56.020Z,29.07
2022-12-22T01:15:42.763Z,29.10
2022-12-22T01:18:27.687Z,29.10
2022-12-22T01:21:12.949Z,28.93
2022-12-22T01:23:57.809Z,29.03
2022-12-22T01:26:42.642Z,28.99
2022-12-22T01:29:27.749Z,29.15
2022-12-22T01:32:14.170Z,29.11
2022-12-22T01:34:59.557Z,29.10
2022-12-22T01:37:44.471Z,29.15
2022-12-22T01:40:31.774Z,29.18
2022-12-22T01:43:16.877Z,29.11
2022-12-22T01:46:01.795Z,29.10
2022-12-22T01:48:48.609Z,29.12
2022-12-22T01:51:33.897Z,29.17
2022-12-22T01:54:18.962Z,29.11
2022-12-22T01:57:04.370Z,28.99
2022-12-22T01:59:49.472Z,28.99
2022-12-22T02:02:34.881Z,29.06
2022-12-22T02:05:21.673Z,29.11
2022-12-22T02:08:10.623Z,29.06
2022-12-22T02:10:59.940Z,29.13
2022-12-22T02:13:48.000Z,29.08
2022-12-22T02:16:33.501Z,29.11
2022-12-22T02:19:19.787Z,29.08
2022-12-22T02:22:09.396Z,28.99
2022-12-22T02:24:56.691Z,29.13
2022-12-22T02:27:43.184Z,29.17
2022-12-22T02:30:28.578Z,29.04
2022-12-22T02:33:13.630Z,29.17
2022-12-22T02:36:02.811Z,29.18
2022-12-22T02:38:49.745Z,29.15
2022-12-22T02:41:36.073Z,29.06
2022-12-22T02:44:26.472Z,29.16
2022-12-22T02:47:13.056Z,29.05
2022-12-22T02:49:58.944Z,29.10
2022-12-22T02:52:46.099Z,29.00
2022-12-22T02:55:31.180Z,29.04
2022-12-22T02:58:17.511Z,29.11
2022-12-22T03:01:04.074Z,29.22
2022-12-22T03:03:49.466Z,29.02
2022-12-22T03:06:34.607Z,29.21
2022-12-22T03:09:19.901Z,29.18
2022-12-22T03:12:04.978Z,29.00
2022-12-22T03:14:50.044Z,29.09
2022-12-22T03:17:36.596Z,29.14
2022-12-22T03:20:21.900Z,29.26
2022-12-22T03:23:06.825Z,29.13
2022-12-22T03:25:54.012Z,29.12
2022-12-22T03:28:21.827Z,29.12
2022-12-22T03:30:54.114Z,29.12
2022-12-22T03:33:23.400Z,29.08
2022-12-22T03:35:51.085Z,29.09
2022-12-22T03:38:18.938Z,29.10
2022-12-22T03:40:46.690Z,29.17
2022-12-22T03:43:32.018Z,29.05
2022-12-22T03:46:17.165Z,29.08
2022-12-22T03:49:06.211Z,29.10
2022-12-22T03:51:35.274Z,29.19
2022-12-22T03:54:02.966Z,29.24
2022-12-22T03:56:30.569Z,29.22
2022-12-22T03:58:58.386Z,29.15
2022-12-22T04:01:27.470Z,29.19
2022-12-22T04:03:56.569Z,29.27
2022-12-22T04:06:24.204Z,29.27
2022-12-22T04:08:51.904Z,29.28
2022-12-22T04:11:36.780Z,29.16
2022-12-22T04:14:04.445Z,29.11
2022-12-22T04:16:32.214Z,29.05
2022-12-22T04:19:01.377Z,29.21
2022-12-22T04:21:29.035Z,28.96
2022-12-22T04:23:56.656Z,29.22
2022-12-22T04:26:24.710Z,29.30
2022-12-22T04:28:52.688Z,29.16
2022-12-22T04:31:20.582Z,29.16
2022-12-22T04:33:48.308Z,29.29
2022-12-22T04:36:17.651Z,29.24
2022-12-22T04:38:45.320Z,29.31
2022-12-22T04:41:13.052Z,29.20
2022-12-22T04:43:40.699Z,29.25
2022-12-22T04:46:08.456Z,29.20
2022-12-22T04:48:36.223Z,29.26
2022-12-22T04:51:03.874Z,29.21
2022-12-22T04:53:33.183Z,29.36
2022-12-22T04:56:01.348Z,29.39
2022-12-22T04:58:28.985Z,29.12
2022-12-22T05:00:58.012Z,29.39
2022-12-22T05:03:25.776Z,29.27
2022-12-22T05:05:53.418Z,29.26
2022-12-22T05:08:21.075Z,29.19
2022-12-22T05:10:50.200Z,29.36
2022-12-22T05:13:17.874Z,29.41
2022-12-22T05:15:45.588Z,29.29
2022-12-22T05:18:13.450Z,29.34
2022-12-22T05:20:41.220Z,29.37
2022-12-22T05:23:08.968Z,29.39
2022-12-22T05:25:36.620Z,29.39
2022-12-22T05:28:05.909Z,29.33
2022-12-22T05:30:33.554Z,29.25
2022-12-22T05:33:01.195Z,29.26
2022-12-22T05:35:28.878Z,29.29
2022-12-22T05:37:56.539Z,29.25
2022-12-22T05:40:24.150Z,29.34
2022-12-22T05:42:51.802Z,29.40
2022-12-22T05:45:22.536Z,29.42
2022-12-22T05:47:50.485Z,29.39
2022-12-22T05:50:18.851Z,29.25
2022-12-22T05:52:46.605Z,29.49
2022-12-22T05:55:14.531Z,29.34
2022-12-22T05:57:42.304Z,29.41
2022-12-22T06:00:11.726Z,29.49
2022-12-22T06:02:40.864Z,29.34
2022-12-22T06:05:08.948Z,29.32
2022-12-22T06:07:36.697Z,29.25
2022-12-22T06:10:09.718Z,29.33
2022-12-22T06:12:39.598Z,29.20
2022-12-22T06:15:07.968Z,29.27
2022-12-22T06:17:42.140Z,29.20
2022-12-22T06:20:13.675Z,29.21
2022-12-22T06:22:41.373Z,29.09
2022-12-22T06:25:13.733Z,29.05
2022-12-22T06:27:45.651Z,29.05
2022-12-22T06:30:13.527Z,29.05
2022-12-22T06:32:41.337Z,28.95
2022-12-22T06:35:09.813Z,28.89
2022-12-22T06:37:38.852Z,28.96
2022-12-22T06:40:07.356Z,28.91
2022-12-22T06:42:52.322Z,28.83
2022-12-22T06:45:21.070Z,28.78
2022-12-22T06:47:50.001Z,28.89
2022-12-22T06:50:17.780Z,28.94
2022-12-22T06:52:47.913Z,28.91
2022-12-22T06:55:15.725Z,28.78
2022-12-22T06:57:43.417Z,28.86
2022-12-22T07:00:11.551Z,28.78
2022-12-22T07:02:39.475Z,28.92
2022-12-22T07:05:07.969Z,28.91
2022-12-22T07:07:35.619Z,28.76
2022-12-22T07:10:05.712Z,28.99
2022-12-22T07:12:33.311Z,28.88
2022-12-22T07:15:00.973Z,28.83
2022-12-22T07:17:28.721Z,28.73
2022-12-22T07:19:56.374Z,28.89
2022-12-22T07:22:29.576Z,28.75
2022-12-22T07:24:58.248Z,28.88
2022-12-22T07:27:27.398Z,28.75
2022-12-22T07:29:56.373Z,28.92
2022-12-22T07:32:24.082Z,28.88
2022-12-22T07:34:51.813Z,28.85
2022-12-22T07:37:19.627Z,28.74
2022-12-22T07:39:47.397Z,29.00
2022-12-22T07:42:32.229Z,28.87
2022-12-22T07:45:01.371Z,28.73
2022-12-22T07:47:34.978Z,28.66
2022-12-22T07:50:20.515Z,28.90
2022-12-22T07:52:48.207Z,28.98
2022-12-22T07:55:15.837Z,28.97
2022-12-22T07:57:43.553Z,28.82
2022-12-22T08:00:13.419Z,28.97
2022-12-22T08:02:41.245Z,28.80
2022-12-22T08:05:09.485Z,28.97
2022-12-22T08:07:37.266Z,28.73
2022-12-22T08:10:05.172Z,28.95
2022-12-22T08:12:33.282Z,28.91
2022-12-22T08:15:01.182Z,28.89
2022-12-22T08:17:32.599Z,28.96
2022-12-22T08:20:00.244Z,29.04
2022-12-22T08:22:30.384Z,29.08
2022-12-22T08:24:58.206Z,29.08
2022-12-22T08:27:26.520Z,29.05
2022-12-22T08:29:55.120Z,29.06
2022-12-22T08:32:22.832Z,29.06
2022-12-22T08:34:51.946Z,29.16
2022-12-22T08:37:19.916Z,29.03
2022-12-22T08:39:47.857Z,29.22
2022-12-22T08:42:15.645Z,28.96
2022-12-22T08:44:44.282Z,29.16
2022-12-22T08:47:16.927Z,29.19
2022-12-22T08:49:45.004Z,29.23
2022-12-22T08:52:18.704Z,29.20
2022-12-22T08:54:47.257Z,29.22
2022-12-22T08:57:15.323Z,29.08
2022-12-22T08:59:42.963Z,29.22
2022-12-22T09:02:12.087Z,29.18
2022-12-22T09:04:39.860Z,29.30
2022-12-22T09:07:07.530Z,29.17
2022-12-22T09:09:36.663Z,29.17
2022-12-22T09:12:04.363Z,29.37
2022-12-22T09:14:32.888Z,29.27
2022-12-22T09:17:00.703Z,29.24
2022-12-22T09:19:28.559Z,29.49
2022-12-22T09:21:56.318Z,29.54
2022-12-22T09:24:23.944Z,29.48
2022-12-22T09:26:53.203Z,29.50
2022-12-22T09:29:20.835Z,29.34
2022-12-22T09:31:48.667Z,29.52
2022-12-22T09:34:18.397Z,29.54
2022-12-22T09:36:46.921Z,29.59
2022-12-22T09:39:14.975Z,29.53
2022-12-22T09:41:43.590Z,29.56
2022-12-22T09:44:14.975Z,29.53
2022-12-22T09:46:42.662Z,29.48
2022-12-22T09:49:11.968Z,29.56
2022-12-22T09:51:41.314Z,29.68
2022-12-22T09:54:10.024Z,29.60
2022-12-22T09:56:37.688Z,29.34
2022-12-22T09:59:06.620Z,29.35
2022-12-22T10:01:39.469Z,29.40
2022-12-22T10:04:09.204Z,29.48
2022-12-22T10:06:38.090Z,29.68
2022-12-22T10:09:43.985Z,29.67
2022-12-22T10:11:58.687Z,29.73
2022-12-22T10:14:26.778Z,29.65
2022-12-22T10:17:09.459Z,29.58
2022-12-22T10:19:40.047Z,29.64
2022-12-22T10:22:11.360Z,29.79
2022-12-22T10:24:39.047Z,29.70
2022-12-22T10:27:07.968Z,29.96
2022-12-22T10:29:35.725Z,29.89
2022-12-22T10:32:03.992Z,29.71
2022-12-22T10:34:31.776Z,29.91
2022-12-22T10:37:02.212Z,29.86
2022-12-22T10:39:30.632Z,29.88
2022-12-22T10:42:01.152Z,29.78
2022-12-22T10:44:29.587Z,29.93
2022-12-22T10:46:57.523Z,29.98
2022-12-22T10:49:25.542Z,29.93
2022-12-22T10:51:53.490Z,30.04
2022-12-22T10:54:29.702Z,30.02
2022-12-22T10:57:00.920Z,29.92
2022-12-22T10:59:28.586Z,29.99
2022-12-22T11:01:56.287Z,30.06
2022-12-22T11:04:25.759Z,30.02
2022-12-22T11:06:53.567Z,29.93
2022-12-22T11:09:33.742Z,29.95
2022-12-22T11:12:04.821Z,30.22
2022-12-22T11:14:34.529Z,30.19
2022-12-22T11:17:03.347Z,30.27
2022-12-22T11:19:35.211Z,30.22
2022-12-22T11:22:04.237Z,30.22
2022-12-22T11:24:34.224Z,30.29
2022-12-22T11:27:06.270Z,30.29
2022-12-22T11:29:39.029Z,30.21
2022-12-22T11:32:12.372Z,30.32
2022-12-22T11:34:44.399Z,30.27
2022-12-22T11:37:14.264Z,30.37
2022-12-22T11:39:43.171Z,30.30
2022-12-22T11:42:18.485Z,30.37
2022-12-22T11:44:47.107Z,30.14
2022-12-22T11:47:16.806Z,30.40
2022-12-22T11:49:49.759Z,30.37
2022-12-22T11:52:22.391Z,30.46
2022-12-22T11:54:55.042Z,30.32
2022-12-22T11:57:26.241Z,30.27
2022-12-22T11:59:55.763Z,30.36
2022-12-22T12:02:35.314Z,30.32
2022-12-22T12:05:19.388Z,30.35
2022-12-22T12:07:47.581Z,30.41
2022-12-22T12:10:16.343Z,30.57
2022-12-22T12:12:48.077Z,30.23
2022-12-22T12:15:18.303Z,30.41
2022-12-22T12:17:49.520Z,30.50
2022-12-22T12:20:29.585Z,30.45
2022-12-22T12:23:00.666Z,30.61
2022-12-22T12:25:29.576Z,30.49
2022-12-22T12:28:02.930Z,30.31
2022-12-22T12:30:39.059Z,30.66
2022-12-22T12:33:09.097Z,30.66
2022-12-22T12:35:39.847Z,30.69
2022-12-22T12:38:16.363Z,30.56
2022-12-22T12:40:57.028Z,30.67
2022-12-22T12:43:26.116Z,30.69
2022-12-22T12:45:55.374Z,30.69
2022-12-22T12:48:41.484Z,30.63
2022-12-22T12:51:29.228Z,30.73
2022-12-22T12:54:11.770Z,30.74
2022-12-22T12:57:00.397Z,30.68
2022-12-22T12:59:43.447Z,30.68
2022-12-22T13:05:14.125Z,30.64
2022-12-22T13:08:01.058Z,30.71
2022-12-22T13:10:32.599Z,30.83
2022-12-22T13:13:00.399Z,30.65
2022-12-22T13:15:30.536Z,30.83
2022-12-22T13:17:58.352Z,30.83
2022-12-22T13:20:28.831Z,30.86
2022-12-22T13:22:56.915Z,30.78
2022-12-22T13:25:25.156Z,30.92
2022-12-22T13:27:52.792Z,30.65
2022-12-22T13:30:21.343Z,30.98
2022-12-22T13:32:49.496Z,30.92
2022-12-22T13:35:37.392Z,30.93
2022-12-22T13:38:07.403Z,30.97
2022-12-22T13:40:40.909Z,30.98
2022-12-22T13:43:11.610Z,30.99
2022-12-22T13:45:39.816Z,31.03
2022-12-22T13:48:09.351Z,30.94
2022-12-22T13:50:37.771Z,31.00
2022-12-22T13:53:07.971Z,31.02
2022-12-22T13:55:36.441Z,31.24
2022-12-22T13:58:05.746Z,31.17
2022-12-22T14:00:33.611Z,31.02
2022-12-22T14:03:02.698Z,31.23
2022-12-22T14:05:33.240Z,31.00
2022-12-22T14:08:04.631Z,31.21
2022-12-22T14:10:37.337Z,31.26
2022-12-22T14:13:12.447Z,31.26
2022-12-22T14:15:40.090Z,31.09
2022-12-22T14:18:07.717Z,31.23
2022-12-22T14:20:37.125Z,31.12
2022-12-22T14:23:07.381Z,31.26
2022-12-22T14:25:37.928Z,31.37
2022-12-22T14:28:06.186Z,31.36
2022-12-22T14:30:38.295Z,31.30
2022-12-22T14:33:16.887Z,31.43
2022-12-22T14:35:47.482Z,31.25
2022-12-22T14:38:19.986Z,31.48
2022-12-22T14:40:56.518Z,31.43
2022-12-22T14:43:28.915Z,31.51
2022-12-22T14:46:03.012Z,31.48
2022-12-22T14:48:31.537Z,31.45
2022-12-22T14:50:59.411Z,31.50
2022-12-22T14:53:30.791Z,31.44
2022-12-22T14:55:59.849Z,31.49
2022-12-22T14:58:30.807Z,31.45
2022-12-22T15:01:13.519Z,31.57
2022-12-22T15:03:42.746Z,31.68
2022-12-22T15:06:23.329Z,31.64
2022-12-22T15:08:53.285Z,31.52
2022-12-22T15:11:23.054Z,31.68
2022-12-22T15:13:54.047Z,31.72
2022-12-22T15:16:22.999Z,31.63
2022-12-22T15:18:50.868Z,31.54
2022-12-22T15:21:19.456Z,31.63
2022-12-22T15:23:47.211Z,31.49
2022-12-22T15:26:15.786Z,31.55
2022-12-22T15:28:44.870Z,31.70
2022-12-22T15:31:13.118Z,31.42
2022-12-22T15:33:41.437Z,31.68
2022-12-22T15:36:10.669Z,31.84
2022-12-22T15:38:39.914Z,31.77
2022-12-22T15:41:07.612Z,31.79
2022-12-22T15:46:25.633Z,31.94
2022-12-22T15:48:53.287Z,31.85
2022-12-22T15:51:24.446Z,31.99
2022-12-22T15:53:52.085Z,31.87
2022-12-22T15:56:21.421Z,31.92
2022-12-22T15:58:49.827Z,31.89
2022-12-22T16:01:17.530Z,31.95
2022-12-22T16:03:48.078Z,31.95
2022-12-22T16:06:16.277Z,32.01
2022-12-22T16:08:44.675Z,31.89
2022-12-22T16:11:13.055Z,31.93
2022-12-22T16:13:40.688Z,32.00
2022-12-22T16:16:09.833Z,32.04
2022-12-22T16:18:37.518Z,32.03
2022-12-22T16:21:08.659Z,32.15
2022-12-22T16:23:36.740Z,31.99
2022-12-22T16:26:04.475Z,32.03
2022-12-22T16:28:33.685Z,32.12
2022-12-22T16:31:01.416Z,32.00
2022-12-22T16:33:30.943Z,32.02
2022-12-22T16:35:58.676Z,31.85
2022-12-22T16:38:27.737Z,32.16
2022-12-22T16:40:56.694Z,32.13
2022-12-22T16:46:14.541Z,32.24
2022-12-22T16:48:42.851Z,32.49
2022-12-22T16:51:12.022Z,32.36
2022-12-22T16:53:42.488Z,32.38
2022-12-22T16:56:11.792Z,32.33
2022-12-22T16:58:39.632Z,32.58
2022-12-22T17:01:07.299Z,32.56
2022-12-22T17:03:38.393Z,32.55
2022-12-22T17:06:06.240Z,32.64
2022-12-22T17:08:35.470Z,32.50
2022-12-22T17:11:10.579Z,32.66
2022-12-22T17:13:39.798Z,32.55
2022-12-22T17:16:07.738Z,32.60
2022-12-22T17:18:35.413Z,32.45
2022-12-22T17:21:06.546Z,32.51
2022-12-22T17:23:34.910Z,32.62
2022-12-22T17:26:05.568Z,32.49
2022-12-22T17:28:33.310Z,32.54
2022-12-22T17:31:01.777Z,32.66
2022-12-22T17:33:29.593Z,32.68
2022-12-22T17:35:58.039Z,32.65
2022-12-22T17:38:27.245Z,32.52
2022-12-22T17:40:58.196Z,32.46
2022-12-22T17:43:27.305Z,32.40
2022-12-22T17:45:56.892Z,32.29
2022-12-22T17:48:24.556Z,32.36
2022-12-22T17:50:52.344Z,32.25
2022-12-22T17:53:21.020Z,32.45
2022-12-22T17:58:38.481Z,32.44
2022-12-22T18:01:06.342Z,32.38
2022-12-22T18:03:36.853Z,32.31
2022-12-22T18:06:05.534Z,32.32
2022-12-22T18:08:33.266Z,32.37
2022-12-22T18:11:01.642Z,32.26
2022-12-22T18:13:29.284Z,32.46
2022-12-22T18:16:01.000Z,32.42
2022-12-22T18:18:28.724Z,32.49
2022-12-22T18:21:07.537Z,32.44
2022-12-22T18:23:38.389Z,32.36
2022-12-22T18:26:06.255Z,32.36
2022-12-22T18:28:35.361Z,32.43
2022-12-22T18:31:05.817Z,32.47
2022-12-22T18:33:33.497Z,32.42
2022-12-22T18:36:01.173Z,32.36
2022-12-22T18:38:29.609Z,32.38
2022-12-22T18:40:57.380Z,32.38
2022-12-22T18:43:27.495Z,32.24
2022-12-22T18:45:55.174Z,32.35
2022-12-22T18:48:24.260Z,32.29
2022-12-22T18:50:52.027Z,32.34
2022-12-22T18:53:22.021Z,32.21
2022-12-22T18:55:49.729Z,32.12
2022-12-22T18:58:17.480Z,32.25
2022-12-22T19:00:45.266Z,32.17
2022-12-22T19:03:22.382Z,32.38
2022-12-22T19:05:51.490Z,32.34
2022-12-22T19:08:19.667Z,32.28
2022-12-22T19:10:48.199Z,32.37
2022-12-22T19:13:23.640Z,32.48
2022-12-22T19:15:52.062Z,32.36
2022-12-22T19:18:26.269Z,32.32
2022-12-22T19:20:57.086Z,32.43
2022-12-22T19:23:25.130Z,32.38
2022-12-22T19:25:53.960Z,32.38
2022-12-22T19:28:28.492Z,32.43
2022-12-22T19:30:57.073Z,32.43
2022-12-22T19:33:26.255Z,32.43
2022-12-22T19:35:55.107Z,32.32
2022-12-22T19:38:25.555Z,32.35
2022-12-22T19:40:54.294Z,32.41
2022-12-22T19:43:21.926Z,32.35
2022-12-22T19:45:52.005Z,32.46
2022-12-22T19:48:20.225Z,32.15
2022-12-22T19:50:48.909Z,32.41
2022-12-22T19:53:16.632Z,32.40
2022-12-22T19:55:48.392Z,32.39
2022-12-22T19:58:16.963Z,32.20
2022-12-22T20:00:45.417Z,32.13
2022-12-22T20:03:21.388Z,32.19
2022-12-22T20:05:50.042Z,32.20
2022-12-22T20:08:17.691Z,32.41
2022-12-22T20:10:49.527Z,32.48
2022-12-22T20:13:21.691Z,32.40
2022-12-22T20:15:50.910Z,32.49
2022-12-22T20:18:19.119Z,32.49
2022-12-22T20:20:57.260Z,32.43
2022-12-22T20:23:25.176Z,32.44
2022-12-22T20:25:55.586Z,32.39
2022-12-22T20:28:23.747Z,32.40
2022-12-22T20:30:51.460Z,32.31
2022-12-22T20:33:20.345Z,32.61
2022-12-22T20:35:48.141Z,32.25
2022-12-22T20:38:18.078Z,32.54
2022-12-22T20:40:45.834Z,32.51
2022-12-22T20:43:16.493Z,32.42
2022-12-22T20:45:44.588Z,32.48
2022-12-22T20:48:17.844Z,32.73
2022-12-22T20:50:47.559Z,32.53
2022-12-22T20:53:17.187Z,32.56
2022-12-22T20:55:44.893Z,32.50
2022-12-22T20:58:16.932Z,32.73
2022-12-22T21:00:44.589Z,32.56
2022-12-22T21:03:13.264Z,32.52
2022-12-22T21:05:41.904Z,32.68
2022-12-22T21:08:20.315Z,32.61
2022-12-22T21:10:48.452Z,32.51
2022-12-22T21:13:18.399Z,32.66
2022-12-22T21:15:46.508Z,32.75
2022-12-22T21:18:16.046Z,32.85
2022-12-22T21:20:44.021Z,32.75
2022-12-22T21:23:12.995Z,32.78
2022-12-22T21:25:46.193Z,32.87
2022-12-22T21:28:17.209Z,32.78
2022-12-22T21:30:46.385Z,32.83
2022-12-22T21:33:14.102Z,32.86
2022-12-22T21:35:43.007Z,32.92
2022-12-22T21:38:11.516Z,32.84
2022-12-22T21:40:40.973Z,32.96
2022-12-22T21:43:09.214Z,32.87
2022-12-22T21:45:42.701Z,32.81
2022-12-22T21:48:13.406Z,32.86
2022-12-22T21:50:41.920Z,32.93
2022-12-22T21:53:09.641Z,33.00
2022-12-22T21:55:37.789Z,32.86
2022-12-22T21:58:06.378Z,32.90
2022-12-22T22:00:34.194Z,32.87
2022-12-22T22:03:02.776Z,32.89
2022-12-22T22:05:33.659Z,33.05
2022-12-22T22:08:01.539Z,32.89
2022-12-22T22:10:30.501Z,33.04
2022-12-22T22:12:58.206Z,32.95
2022-12-22T22:15:28.030Z,32.70
2022-12-22T22:17:58.631Z,33.05
2022-12-22T22:20:30.985Z,32.97
2022-12-22T22:23:00.169Z,33.03
2022-12-22T22:25:30.016Z,32.87
2022-12-22T22:27:58.842Z,33.14
2022-12-22T22:30:27.210Z,33.13
2022-12-22T22:32:54.875Z,33.12
2022-12-22T22:35:23.237Z,33.11
2022-12-22T22:37:51.784Z,33.25
2022-12-22T22:40:22.236Z,33.23
2022-12-22T22:42:49.969Z,33.18
2022-12-22T22:45:23.728Z,33.18
2022-12-22T22:47:52.256Z,33.35
2022-12-22T22:50:20.991Z,33.04
2022-12-22T22:52:48.735Z,33.32
2022-12-22T22:55:16.661Z,33.13
2022-12-22T22:57:49.230Z,33.25
2022-12-22T23:00:17.422Z,33.21
2022-12-22T23:02:46.115Z,33.38
2022-12-22T23:05:20.696Z,33.36
2022-12-22T23:07:50.991Z,33.35
2022-12-22T23:10:18.700Z,33.18
2022-12-22T23:12:47.948Z,33.33
2022-12-22T23:15:15.660Z,33.26
2022-12-22T23:17:43.255Z,33.36
2022-12-22T23:20:11.213Z,33.16
2022-12-22T23:25:07.036Z,33.19
2022-12-22T23:27:34.724Z,33.06
2022-12-22T23:30:03.895Z,33.35
2022-12-22T23:32:31.594Z,33.19
2022-12-22T23:34:59.308Z,33.33
2022-12-22T23:37:26.963Z,33.35
2022-12-22T23:39:56.095Z,33.41
2022-12-22T23:42:29.585Z,33.33
2022-12-22T23:44:57.722Z,33.39
2022-12-22T23:47:26.761Z,33.32
2022-12-22T23:49:54.909Z,33.40
2022-12-22T23:52:22.589Z,33.34
2022-12-22T23:54:50.303Z,33.45
2022-12-22T23:57:18.038Z,33.41
2022-12-22T23:59:45.698Z,33.22
